首页
METAR-TAF:

METAR-TAF

机场 :

Four Corners Regional Airport

Farmington, 新墨西哥州, 美国

纬度: 36-44-37N, 经度: 108-13-45W, 海拔: 1677米

当前天气观测

该预报发布于16分钟前的11:53 UTC
风速3节,风向东南
温度 -7°C
湿度 67%
气压 1027 hPa
能見度: 16.1公里
天空无云

METAR: KFMN 271153Z AUTO 13003KT 10SM CLR M07/M12 A3032 RMK AO2 SLP290 T10671122 11006 21078 55000

时间: 05:09 (12:09 UTC)

预报

该预报发布于44分钟前的11:25 UTC
预报有效从27日的 12点(UTC)到 28日的 12点(UTC)
风速5节,风向
能見度: 10公里
天空无云
从 27日的 2000点(UTC)
风速15节,风向西转西北,有时为23节阵风
能見度: 10公里
天空无云
从 28日的 0200点(UTC)
风速9节,风向西转西北
能見度: 10公里
天空无云
从 28日的 0600点(UTC)
风速5节,风向多变
能見度: 10公里
天空无云

TAF: KFMN 271125Z 2712/2812 08005KT P6SM SKC FM272000 29015G23KT P6SM SKC FM280200 29009KT P6SM SKC FM280600 VRB05KT P6SM SKC

超过4000个机场的气象观测和天气预报(METAR&TAF报告)。

可查询的气象台以黄色和红色小点在地图上表示。

将鼠标移到小点上方,可查看气象台名称。

然后点击查看天气观测和预报。

如需切换地图:点击带黑十字的绿色按钮放大地图;点击带横线的绿色按钮缩小地图;或者点击绿色箭头查看邻近地区的地图。


METAR-TAF: